sensor_id;sensor_type;location;lat;lon;timestamp;pressure;altitude;pressure_sealevel;temperature;humidity
22964;BME280;11648;49.306;6.934;2022-12-07T00:03:41;98621.56;;;8.74;64.26
22964;BME280;11648;49.306;6.934;2022-12-07T00:06:10;98619.81;;;8.79;64.64
22964;BME280;11648;49.306;6.934;2022-12-07T00:08:37;98615.47;;;8.76;64.56
22964;BME280;11648;49.306;6.934;2022-12-07T00:11:15;98615.44;;;8.70;64.45
22964;BME280;11648;49.306;6.934;2022-12-07T00:13:42;98616.31;;;8.69;64.55
22964;BME280;11648;49.306;6.934;2022-12-07T00:16:17;98612.81;;;8.70;64.91
22964;BME280;11648;49.306;6.934;2022-12-07T00:18:44;98617.19;;;8.71;65.02
22964;BME280;11648;49.306;6.934;2022-12-07T00:21:17;98613.69;;;8.71;64.51
22964;BME280;11648;49.306;6.934;2022-12-07T00:23:45;98609.34;;;8.71;64.51
22964;BME280;11648;49.306;6.934;2022-12-07T00:26:27;98602.31;;;8.70;64.83
22964;BME280;11648;49.306;6.934;2022-12-07T00:28:58;98600.59;;;8.72;64.10
22964;BME280;11648;49.306;6.934;2022-12-07T00:31:34;98601.47;;;8.76;64.05
22964;BME280;11648;49.306;6.934;2022-12-07T00:34:06;98602.31;;;8.75;64.05
22964;BME280;11648;49.306;6.934;2022-12-07T00:36:33;98586.59;;;8.69;64.25
22964;BME280;11648;49.306;6.934;2022-12-07T00:39:00;98587.44;;;8.69;64.16
22964;BME280;11648;49.306;6.934;2022-12-07T00:41:29;98589.19;;;8.73;63.59
22964;BME280;11648;49.306;6.934;2022-12-07T00:43:57;98588.34;;;8.68;63.38
22964;BME280;11648;49.306;6.934;2022-12-07T00:46:24;98580.47;;;8.71;63.58
22964;BME280;11648;49.306;6.934;2022-12-07T00:48:52;98581.34;;;8.72;63.88
22964;BME280;11648;49.306;6.934;2022-12-07T00:51:23;98568.19;;;8.73;63.73
22964;BME280;11648;49.306;6.934;2022-12-07T00:53:50;98574.34;;;8.72;63.62
22964;BME280;11648;49.306;6.934;2022-12-07T00:56:22;98580.44;;;8.74;63.78
22964;BME280;11648;49.306;6.934;2022-12-07T00:59:00;98590.97;;;8.73;63.71
22964;BME280;11648;49.306;6.934;2022-12-07T01:01:31;98596.19;;;8.70;63.64
22964;BME280;11648;49.306;6.934;2022-12-07T01:03:58;98597.06;;;8.66;64.15
22964;BME280;11648;49.306;6.934;2022-12-07T01:06:28;98596.22;;;8.53;64.37
22964;BME280;11648;49.306;6.934;2022-12-07T01:08:55;98598.84;;;8.50;64.63
22964;BME280;11648;49.306;6.934;2022-12-07T01:11:25;98591.84;;;8.54;64.71
22964;BME280;11648;49.306;6.934;2022-12-07T01:13:53;98589.22;;;8.55;63.92
22964;BME280;11648;49.306;6.934;2022-12-07T01:16:21;98592.75;;;8.54;64.22
22964;BME280;11648;49.306;6.934;2022-12-07T01:18:50;98591.84;;;8.54;64.43
22964;BME280;11648;49.306;6.934;2022-12-07T01:21:20;98589.22;;;8.54;64.26
22964;BME280;11648;49.306;6.934;2022-12-07T01:23:48;98584.88;;;8.54;64.53
22964;BME280;11648;49.306;6.934;2022-12-07T01:26:17;98580.47;;;8.46;64.75
22964;BME280;11648;49.306;6.934;2022-12-07T01:28:45;98587.50;;;8.40;64.64
22964;BME280;11648;49.306;6.934;2022-12-07T01:31:14;98587.50;;;8.47;64.54
22964;BME280;11648;49.306;6.934;2022-12-07T01:33:44;98586.63;;;8.46;64.63
22964;BME280;11648;49.306;6.934;2022-12-07T01:36:25;98592.72;;;8.48;64.20
22964;BME280;11648;49.306;6.934;2022-12-07T01:38:58;98593.63;;;8.44;64.48
22964;BME280;11648;49.306;6.934;2022-12-07T01:41:29;98599.72;;;8.44;64.29
22964;BME280;11648;49.306;6.934;2022-12-07T01:46:55;98604.09;;;8.38;64.55
22964;BME280;11648;49.306;6.934;2022-12-07T01:49:36;98604.09;;;8.39;64.02
22964;BME280;11648;49.306;6.934;2022-12-07T01:52:21;98611.09;;;8.37;64.46
22964;BME280;11648;49.306;6.934;2022-12-07T01:54:51;98598.84;;;8.32;64.42
22964;BME280;11648;49.306;6.934;2022-12-07T01:57:20;98599.72;;;8.31;64.45
22964;BME280;11648;49.306;6.934;2022-12-07T01:59:49;98589.25;;;8.29;64.58
22964;BME280;11648;49.306;6.934;2022-12-07T02:02:30;98584.84;;;8.34;64.56
22964;BME280;11648;49.306;6.934;2022-12-07T02:05:01;98581.38;;;8.31;64.62
22964;BME280;11648;49.306;6.934;2022-12-07T02:07:28;98576.97;;;8.24;64.71
22964;BME280;11648;49.306;6.934;2022-12-07T02:09:56;98578.69;;;8.26;64.79
22964;BME280;11648;49.306;6.934;2022-12-07T02:12:24;98582.25;;;8.33;64.26
22964;BME280;11648;49.306;6.934;2022-12-07T02:14:51;98590.13;;;8.33;64.07
22964;BME280;11648;49.306;6.934;2022-12-07T02:20:03;98576.13;;;8.32;64.70
22964;BME280;11648;49.306;6.934;2022-12-07T02:28:06;98563.91;;;8.33;63.88
22964;BME280;11648;49.306;6.934;2022-12-07T02:30:40;98564.75;;;8.32;63.85
22964;BME280;11648;49.306;6.934;2022-12-07T02:33:15;98562.13;;;8.18;64.21
22964;BME280;11648;49.306;6.934;2022-12-07T02:38:28;98576.09;;;8.28;64.21
22964;BME280;11648;49.306;6.934;2022-12-07T02:41:02;98576.06;;;8.26;64.69
22964;BME280;11648;49.306;6.934;2022-12-07T02:43:35;98570.00;;;8.30;64.50
22964;BME280;11648;49.306;6.934;2022-12-07T02:46:08;98566.53;;;8.33;64.73
22964;BME280;11648;49.306;6.934;2022-12-07T02:48:38;98558.63;;;8.39;64.05
22964;BME280;11648;49.306;6.934;2022-12-07T02:51:05;98556.91;;;8.36;63.79
22964;BME280;11648;49.306;6.934;2022-12-07T02:53:42;98553.41;;;8.33;64.42
22964;BME280;11648;49.306;6.934;2022-12-07T03:12:46;98552.50;;;8.25;64.06
22964;BME280;11648;49.306;6.934;2022-12-07T03:15:22;98546.38;;;8.21;63.89
22964;BME280;11648;49.306;6.934;2022-12-07T03:17:54;98549.00;;;8.24;63.94
22964;BME280;11648;49.306;6.934;2022-12-07T03:20:24;98548.97;;;8.23;63.85
22964;BME280;11648;49.306;6.934;2022-12-07T03:22:53;98549.00;;;8.30;63.71
22964;BME280;11648;49.306;6.934;2022-12-07T03:25:21;98548.13;;;8.34;64.25
22964;BME280;11648;49.306;6.934;2022-12-07T03:27:55;98548.16;;;8.28;64.01
22964;BME280;11648;49.306;6.934;2022-12-07T03:30:45;98541.16;;;8.29;63.68
22964;BME280;11648;49.306;6.934;2022-12-07T03:33:29;98546.38;;;8.17;64.10
22964;BME280;11648;49.306;6.934;2022-12-07T03:36:05;98544.63;;;8.07;64.71
22964;BME280;11648;49.306;6.934;2022-12-07T03:41:16;98543.75;;;8.20;64.58
22964;BME280;11648;49.306;6.934;2022-12-07T03:43:44;98544.63;;;8.14;64.05
22964;BME280;11648;49.306;6.934;2022-12-07T03:46:22;98542.00;;;8.05;64.96
22964;BME280;11648;49.306;6.934;2022-12-07T03:49:00;98548.13;;;8.00;64.41
22964;BME280;11648;49.306;6.934;2022-12-07T03:51:40;98536.75;;;8.14;64.61
22964;BME280;11648;49.306;6.934;2022-12-07T03:54:26;98539.41;;;8.19;64.50
22964;BME280;11648;49.306;6.934;2022-12-07T03:56:55;98541.16;;;8.15;64.38
22964;BME280;11648;49.306;6.934;2022-12-07T03:59:24;98541.13;;;8.12;64.82
22964;BME280;11648;49.306;6.934;2022-12-07T04:01:53;98544.63;;;8.17;64.78
22964;BME280;11648;49.306;6.934;2022-12-07T04:04:24;98541.13;;;8.21;64.53
22964;BME280;11648;49.306;6.934;2022-12-07T04:06:51;98535.00;;;8.24;64.13
22964;BME280;11648;49.306;6.934;2022-12-07T04:09:18;98534.13;;;8.16;64.59
22964;BME280;11648;49.306;6.934;2022-12-07T04:11:45;98527.13;;;8.13;64.08
22964;BME280;11648;49.306;6.934;2022-12-07T04:14:12;98528.00;;;8.02;65.05
22964;BME280;11648;49.306;6.934;2022-12-07T04:16:53;98535.88;;;7.91;65.15
22964;BME280;11648;49.306;6.934;2022-12-07T04:19:22;98536.72;;;7.67;65.68
22964;BME280;11648;49.306;6.934;2022-12-07T04:21:49;98528.00;;;7.83;65.59
22964;BME280;11648;49.306;6.934;2022-12-07T04:24:16;98530.66;;;7.86;65.10
22964;BME280;11648;49.306;6.934;2022-12-07T04:26:43;98528.03;;;7.89;65.36
22964;BME280;11648;49.306;6.934;2022-12-07T04:29:11;98534.13;;;8.02;64.82
22964;BME280;11648;49.306;6.934;2022-12-07T04:31:38;98524.53;;;8.00;64.91
22964;BME280;11648;49.306;6.934;2022-12-07T04:34:06;98528.88;;;7.85;65.24
22964;BME280;11648;49.306;6.934;2022-12-07T04:36:33;98527.16;;;7.86;65.17
22964;BME280;11648;49.306;6.934;2022-12-07T04:39:00;98530.66;;;7.89;65.23
22964;BME280;11648;49.306;6.934;2022-12-07T04:41:27;98519.25;;;8.01;65.17
22964;BME280;11648;49.306;6.934;2022-12-07T04:43:55;98528.00;;;7.99;64.77
22964;BME280;11648;49.306;6.934;2022-12-07T04:46:26;98527.16;;;7.93;65.25
22964;BME280;11648;49.306;6.934;2022-12-07T04:48:53;98521.91;;;7.93;64.69
22964;BME280;11648;49.306;6.934;2022-12-07T04:51:26;98526.28;;;7.82;64.98
22964;BME280;11648;49.306;6.934;2022-12-07T04:53:53;98521.88;;;7.77;65.48
22964;BME280;11648;49.306;6.934;2022-12-07T04:56:21;98521.03;;;7.79;65.03
22964;BME280;11648;49.306;6.934;2022-12-07T04:58:49;98524.50;;;7.77;65.57
22964;BME280;11648;49.306;6.934;2022-12-07T05:01:17;98525.38;;;7.74;65.57
22964;BME280;11648;49.306;6.934;2022-12-07T05:03:44;98523.66;;;7.85;65.36
22964;BME280;11648;49.306;6.934;2022-12-07T05:06:11;98514.91;;;7.85;65.49
22964;BME280;11648;49.306;6.934;2022-12-07T05:08:39;98521.88;;;8.01;64.97
22964;BME280;11648;49.306;6.934;2022-12-07T05:11:07;98515.81;;;8.01;64.72
22964;BME280;11648;49.306;6.934;2022-12-07T05:13:35;98521.88;;;8.09;64.53
22964;BME280;11648;49.306;6.934;2022-12-07T05:16:02;98519.28;;;8.15;64.37
22964;BME280;11648;49.306;6.934;2022-12-07T05:18:29;98516.69;;;8.12;64.25
22964;BME280;11648;49.306;6.934;2022-12-07T05:20:56;98520.16;;;8.17;64.43
22964;BME280;11648;49.306;6.934;2022-12-07T05:23:22;98526.28;;;8.25;64.30
22964;BME280;11648;49.306;6.934;2022-12-07T05:25:49;98519.25;;;8.24;64.12
22964;BME280;11648;49.306;6.934;2022-12-07T05:28:16;98528.00;;;8.23;64.04
22964;BME280;11648;49.306;6.934;2022-12-07T05:30:43;98520.16;;;8.15;64.89
22964;BME280;11648;49.306;6.934;2022-12-07T05:33:09;98519.25;;;8.24;64.77
22964;BME280;11648;49.306;6.934;2022-12-07T05:35:36;98515.78;;;8.23;64.58
22964;BME280;11648;49.306;6.934;2022-12-07T05:38:04;98514.94;;;8.15;65.02
22964;BME280;11648;49.306;6.934;2022-12-07T05:40:31;98518.41;;;8.17;65.25
22964;BME280;11648;49.306;6.934;2022-12-07T05:42:57;98521.00;;;8.16;65.20
22964;BME280;11648;49.306;6.934;2022-12-07T05:45:30;98526.28;;;8.19;65.20
22964;BME280;11648;49.306;6.934;2022-12-07T05:47:57;98518.41;;;8.28;65.41
22964;BME280;11648;49.306;6.934;2022-12-07T05:50:24;98524.53;;;8.30;65.54
22964;BME280;11648;49.306;6.934;2022-12-07T05:52:59;98521.91;;;8.25;65.14
22964;BME280;11648;49.306;6.934;2022-12-07T05:55:26;98521.91;;;8.31;65.01
22964;BME280;11648;49.306;6.934;2022-12-07T05:57:53;98526.28;;;8.31;65.48
22964;BME280;11648;49.306;6.934;2022-12-07T06:00:38;98524.53;;;8.31;66.07
22964;BME280;11648;49.306;6.934;2022-12-07T06:03:05;98524.53;;;8.31;65.60
22964;BME280;11648;49.306;6.934;2022-12-07T06:05:32;98523.63;;;8.26;66.12
22964;BME280;11648;49.306;6.934;2022-12-07T06:07:59;98519.25;;;8.27;66.07
22964;BME280;11648;49.306;6.934;2022-12-07T06:10:31;98515.78;;;8.31;66.43
22964;BME280;11648;49.306;6.934;2022-12-07T06:12:58;98521.91;;;8.22;66.21
22964;BME280;11648;49.306;6.934;2022-12-07T06:15:24;98514.91;;;8.30;66.29
22964;BME280;11648;49.306;6.934;2022-12-07T06:17:51;98526.28;;;8.34;66.19
22964;BME280;11648;49.306;6.934;2022-12-07T06:20:18;98521.91;;;8.34;65.83
22964;BME280;11648;49.306;6.934;2022-12-07T06:22:44;98526.28;;;8.34;66.30
22964;BME280;11648;49.306;6.934;2022-12-07T06:25:11;98530.66;;;8.30;66.23
22964;BME280;11648;49.306;6.934;2022-12-07T06:27:38;98532.41;;;8.30;66.26
22964;BME280;11648;49.306;6.934;2022-12-07T06:30:05;98530.66;;;8.30;66.95
22964;BME280;11648;49.306;6.934;2022-12-07T06:32:33;98526.31;;;8.32;66.37
22964;BME280;11648;49.306;6.934;2022-12-07T06:35:00;98536.78;;;8.34;66.96
22964;BME280;11648;49.306;6.934;2022-12-07T06:37:27;98525.41;;;8.39;66.63
22964;BME280;11648;49.306;6.934;2022-12-07T06:39:54;98535.91;;;8.42;66.88
22964;BME280;11648;49.306;6.934;2022-12-07T06:42:20;98533.25;;;8.41;66.63
22964;BME280;11648;49.306;6.934;2022-12-07T06:44:47;98530.63;;;8.41;66.40
22964;BME280;11648;49.306;6.934;2022-12-07T06:47:14;98522.78;;;8.38;66.01
22964;BME280;11648;49.306;6.934;2022-12-07T06:50:00;98525.41;;;8.39;66.11
22964;BME280;11648;49.306;6.934;2022-12-07T06:52:28;98522.78;;;8.38;66.46
22964;BME280;11648;49.306;6.934;2022-12-07T06:54:54;98517.53;;;8.41;66.38
22964;BME280;11648;49.306;6.934;2022-12-07T06:57:21;98519.28;;;8.39;66.36
22964;BME280;11648;49.306;6.934;2022-12-07T06:59:49;98521.91;;;8.34;66.58
22964;BME280;11648;49.306;6.934;2022-12-07T07:02:15;98515.78;;;8.37;66.40
22964;BME280;11648;49.306;6.934;2022-12-07T07:04:42;98528.03;;;8.32;66.50
22964;BME280;11648;49.306;6.934;2022-12-07T07:07:09;98522.78;;;8.35;66.61
22964;BME280;11648;49.306;6.934;2022-12-07T07:09:36;98528.03;;;8.32;66.40
22964;BME280;11648;49.306;6.934;2022-12-07T07:12:02;98529.78;;;8.36;66.79
22964;BME280;11648;49.306;6.934;2022-12-07T07:14:29;98526.28;;;8.41;66.13
22964;BME280;11648;49.306;6.934;2022-12-07T07:16:56;98525.41;;;8.44;66.24
22964;BME280;11648;49.306;6.934;2022-12-07T07:19:23;98525.44;;;8.36;66.74
22964;BME280;11648;49.306;6.934;2022-12-07T07:21:50;98525.41;;;8.33;66.09
22964;BME280;11648;49.306;6.934;2022-12-07T07:24:16;98528.03;;;8.39;66.72
22964;BME280;11648;49.306;6.934;2022-12-07T07:26:43;98536.78;;;8.34;67.03
22964;BME280;11648;49.306;6.934;2022-12-07T07:29:10;98534.16;;;8.40;66.40
22964;BME280;11648;49.306;6.934;2022-12-07T07:31:39;98535.91;;;8.39;66.55
22964;BME280;11648;49.306;6.934;2022-12-07T07:34:06;98534.13;;;8.23;67.05
22964;BME280;11648;49.306;6.934;2022-12-07T07:36:33;98540.28;;;8.36;66.94
22964;BME280;11648;49.306;6.934;2022-12-07T07:38:59;98539.38;;;8.37;67.09
22964;BME280;11648;49.306;6.934;2022-12-07T07:41:26;98538.50;;;8.21;67.43
22964;BME280;11648;49.306;6.934;2022-12-07T07:43:53;98549.03;;;8.32;67.45
22964;BME280;11648;49.306;6.934;2022-12-07T07:46:19;98543.78;;;8.36;66.65
22964;BME280;11648;49.306;6.934;2022-12-07T07:48:46;98543.75;;;8.26;67.11
22964;BME280;11648;49.306;6.934;2022-12-07T07:51:13;98544.66;;;8.29;66.88
22964;BME280;11648;49.306;6.934;2022-12-07T07:53:41;98527.16;;;8.37;67.05
22964;BME280;11648;49.306;6.934;2022-12-07T07:56:07;98536.78;;;8.31;67.05
22964;BME280;11648;49.306;6.934;2022-12-07T07:58:34;98534.16;;;8.35;66.69
22964;BME280;11648;49.306;6.934;2022-12-07T08:01:08;98536.75;;;8.49;66.71
22964;BME280;11648;49.306;6.934;2022-12-07T08:03:35;98542.91;;;8.51;67.45
22964;BME280;11648;49.306;6.934;2022-12-07T08:06:03;98545.50;;;8.60;66.50
22964;BME280;11648;49.306;6.934;2022-12-07T08:08:30;98547.22;;;8.63;66.71
22964;BME280;11648;49.306;6.934;2022-12-07T08:10:57;98549.00;;;8.55;67.10
22964;BME280;11648;49.306;6.934;2022-12-07T08:13:27;98545.50;;;8.54;67.07
22964;BME280;11648;49.306;6.934;2022-12-07T08:15:57;98545.50;;;8.56;67.06
22964;BME280;11648;49.306;6.934;2022-12-07T08:18:25;98555.13;;;8.46;67.24
22964;BME280;11648;49.306;6.934;2022-12-07T08:20:51;98548.97;;;8.62;66.75
22964;BME280;11648;49.306;6.934;2022-12-07T08:23:18;98557.72;;;8.64;67.26
22964;BME280;11648;49.306;6.934;2022-12-07T08:25:45;98556.88;;;8.65;66.73
22964;BME280;11648;49.306;6.934;2022-12-07T08:28:11;98561.19;;;8.74;66.84
22964;BME280;11648;49.306;6.934;2022-12-07T08:30:38;98562.09;;;8.68;67.05
22964;BME280;11648;49.306;6.934;2022-12-07T08:33:05;98562.97;;;8.52;66.94
22964;BME280;11648;49.306;6.934;2022-12-07T08:35:33;98567.34;;;8.67;66.55
22964;BME280;11648;49.306;6.934;2022-12-07T08:38:00;98569.06;;;8.74;66.88
22964;BME280;11648;49.306;6.934;2022-12-07T08:40:29;98567.31;;;8.80;66.17
22964;BME280;11648;49.306;6.934;2022-12-07T08:42:56;98565.59;;;8.69;66.40
22964;BME280;11648;49.306;6.934;2022-12-07T08:45:22;98576.94;;;8.81;66.95
22964;BME280;11648;49.306;6.934;2022-12-07T08:48:01;98569.91;;;8.88;67.01
22964;BME280;11648;49.306;6.934;2022-12-07T08:50:31;98574.31;;;8.86;66.82
22964;BME280;11648;49.306;6.934;2022-12-07T08:52:58;98576.03;;;8.84;66.52
22964;BME280;11648;49.306;6.934;2022-12-07T08:55:28;98572.56;;;8.82;66.70
22964;BME280;11648;49.306;6.934;2022-12-07T08:57:57;98583.06;;;8.86;66.78
22964;BME280;11648;49.306;6.934;2022-12-07T09:00:24;98583.06;;;8.89;66.48
22964;BME280;11648;49.306;6.934;2022-12-07T09:02:53;98573.41;;;8.94;66.58
22964;BME280;11648;49.306;6.934;2022-12-07T09:05:20;98572.47;;;9.09;66.69
22964;BME280;11648;49.306;6.934;2022-12-07T09:07:50;98575.97;;;9.17;66.15
22964;BME280;11648;49.306;6.934;2022-12-07T09:10:18;98574.19;;;9.21;66.41
22964;BME280;11648;49.306;6.934;2022-12-07T09:12:44;98573.25;;;9.38;65.47
22964;BME280;11648;49.306;6.934;2022-12-07T09:15:11;98571.47;;;9.47;65.08
22964;BME280;11648;49.306;6.934;2022-12-07T09:17:38;98578.47;;;9.46;65.07
22964;BME280;11648;49.306;6.934;2022-12-07T09:20:05;98572.41;;;9.33;65.97
22964;BME280;11648;49.306;6.934;2022-12-07T09:22:33;98575.00;;;9.36;65.45
22964;BME280;11648;49.306;6.934;2022-12-07T09:25:00;98578.50;;;9.38;65.24
22964;BME280;11648;49.306;6.934;2022-12-07T09:27:27;98572.34;;;9.46;65.34
22964;BME280;11648;49.306;6.934;2022-12-07T09:29:53;98577.59;;;9.47;64.70
22964;BME280;11648;49.306;6.934;2022-12-07T09:32:20;98567.09;;;9.42;65.23
22964;BME280;11648;49.306;6.934;2022-12-07T09:34:47;98559.88;;;9.81;64.45
22964;BME280;11648;49.306;6.934;2022-12-07T09:37:14;98558.78;;;10.12;64.08
22964;BME280;11648;49.306;6.934;2022-12-07T09:39:41;98563.88;;;10.38;62.45
22964;BME280;11648;49.306;6.934;2022-12-07T09:42:30;98555.00;;;10.48;62.18
22964;BME280;11648;49.306;6.934;2022-12-07T09:44:59;98564.72;;;10.38;62.48
22964;BME280;11648;49.306;6.934;2022-12-07T09:47:27;98557.72;;;10.39;61.97
22964;BME280;11648;49.306;6.934;2022-12-07T09:50:03;98558.75;;;10.17;62.58
22964;BME280;11648;49.306;6.934;2022-12-07T09:52:31;98547.41;;;10.15;62.70
22964;BME280;11648;49.306;6.934;2022-12-07T09:55:16;98550.91;;;10.15;63.32
22964;BME280;11648;49.306;6.934;2022-12-07T09:57:45;98551.91;;;9.93;63.72
22964;BME280;11648;49.306;6.934;2022-12-07T10:00:17;98548.31;;;10.05;64.00
22964;BME280;11648;49.306;6.934;2022-12-07T10:02:49;98544.88;;;9.92;63.95
22964;BME280;11648;49.306;6.934;2022-12-07T10:05:20;98536.97;;;9.97;64.18
22964;BME280;11648;49.306;6.934;2022-12-07T10:07:50;98538.69;;;9.99;64.09
22964;BME280;11648;49.306;6.934;2022-12-07T10:10:23;98541.41;;;9.90;63.42
22964;BME280;11648;49.306;6.934;2022-12-07T10:13:06;98539.56;;;10.03;63.31
22964;BME280;11648;49.306;6.934;2022-12-07T10:15:53;98540.41;;;10.06;63.52
22964;BME280;11648;49.306;6.934;2022-12-07T10:21:23;98541.22;;;10.17;63.32
22964;BME280;11648;49.306;6.934;2022-12-07T10:24:13;98536.94;;;10.06;63.17
22964;BME280;11648;49.306;6.934;2022-12-07T10:34:37;98519.22;;;10.27;62.99
22964;BME280;11648;49.306;6.934;2022-12-07T10:42:18;98512.94;;;10.44;62.07
22964;BME280;11648;49.306;6.934;2022-12-07T10:44:46;98510.19;;;10.53;61.92
22964;BME280;11648;49.306;6.934;2022-12-07T10:47:48;98507.69;;;10.45;61.45
22964;BME280;11648;49.306;6.934;2022-12-07T11:01:31;98502.19;;;10.66;60.60
22964;BME280;11648;49.306;6.934;2022-12-07T11:04:11;98495.94;;;10.76;60.79
22964;BME280;11648;49.306;6.934;2022-12-07T11:17:23;98481.97;;;10.68;58.69
22964;BME280;11648;49.306;6.934;2022-12-07T11:22:55;98481.28;;;10.51;58.90
22964;BME280;11648;49.306;6.934;2022-12-07T11:25:53;98476.91;;;10.52;59.24
22964;BME280;11648;49.306;6.934;2022-12-07T11:28:32;98481.25;;;10.53;59.62
22964;BME280;11648;49.306;6.934;2022-12-07T11:33:52;98471.72;;;10.44;59.38
22964;BME280;11648;49.306;6.934;2022-12-07T11:38:52;98460.41;;;10.31;58.14
22964;BME280;11648;49.306;6.934;2022-12-07T11:41:44;98460.41;;;10.33;57.95
22964;BME280;11648;49.306;6.934;2022-12-07T11:44:47;98464.81;;;10.34;58.63
22964;BME280;11648;49.306;6.934;2022-12-07T11:47:34;98456.13;;;10.21;57.37
22964;BME280;11648;49.306;6.934;2022-12-07T11:52:56;98448.94;;;10.38;58.32
22964;BME280;11648;49.306;6.934;2022-12-07T12:01:07;98449.91;;;10.31;58.78
22964;BME280;11648;49.306;6.934;2022-12-07T12:03:41;98445.53;;;10.29;59.11
22964;BME280;11648;49.306;6.934;2022-12-07T12:06:19;98443.03;;;10.20;58.45
22964;BME280;11648;49.306;6.934;2022-12-07T12:08:50;98447.28;;;10.28;58.81
22964;BME280;11648;49.306;6.934;2022-12-07T12:17:37;98439.44;;;10.24;58.45
22964;BME280;11648;49.306;6.934;2022-12-07T12:20:39;98435.06;;;10.26;58.85
22964;BME280;11648;49.306;6.934;2022-12-07T12:23:12;98439.44;;;10.24;58.35
22964;BME280;11648;49.306;6.934;2022-12-07T12:25:44;98437.72;;;10.23;58.84
22964;BME280;11648;49.306;6.934;2022-12-07T12:28:40;98430.59;;;10.31;58.59
22964;BME280;11648;49.306;6.934;2022-12-07T12:33:50;98434.28;;;10.16;58.56
22964;BME280;11648;49.306;6.934;2022-12-07T12:39:10;98436.00;;;10.17;58.39
22964;BME280;11648;49.306;6.934;2022-12-07T12:54:21;98426.63;;;9.86;59.54
22964;BME280;11648;49.306;6.934;2022-12-07T12:57:09;98424.00;;;9.84;58.98
22964;BME280;11648;49.306;6.934;2022-12-07T13:15:36;98412.66;;;9.78;59.40
22964;BME280;11648;49.306;6.934;2022-12-07T13:23:27;98403.03;;;9.78;59.48
22964;BME280;11648;49.306;6.934;2022-12-07T13:26:04;98398.66;;;9.80;59.03
22964;BME280;11648;49.306;6.934;2022-12-07T13:29:09;98396.00;;;9.83;59.53
22964;BME280;11648;49.306;6.934;2022-12-07T13:31:49;98392.50;;;9.78;58.79
22964;BME280;11648;49.306;6.934;2022-12-07T13:34:32;98389.88;;;9.80;59.02
22964;BME280;11648;49.306;6.934;2022-12-07T13:37:01;98394.31;;;9.76;59.31
22964;BME280;11648;49.306;6.934;2022-12-07T13:39:28;98393.28;;;9.88;59.60
22964;BME280;11648;49.306;6.934;2022-12-07T13:41:57;98391.56;;;9.85;59.75
22964;BME280;11648;49.306;6.934;2022-12-07T13:44:27;98390.69;;;9.85;59.36
22964;BME280;11648;49.306;6.934;2022-12-07T13:49:50;98381.94;;;9.84;59.52
22964;BME280;11648;49.306;6.934;2022-12-07T13:52:28;98386.31;;;9.87;59.41
22964;BME280;11648;49.306;6.934;2022-12-07T13:55:06;98389.03;;;9.75;59.38
22964;BME280;11648;49.306;6.934;2022-12-07T13:57:40;98380.16;;;9.88;59.68
22964;BME280;11648;49.306;6.934;2022-12-07T14:03:23;98381.94;;;9.86;59.55
22964;BME280;11648;49.306;6.934;2022-12-07T14:08:32;98375.75;;;9.90;59.89
22964;BME280;11648;49.306;6.934;2022-12-07T14:10:59;98371.38;;;9.90;59.20
22964;BME280;11648;49.306;6.934;2022-12-07T14:15:57;98366.06;;;9.97;59.16
22964;BME280;11648;49.306;6.934;2022-12-07T14:18:37;98371.38;;;9.89;58.53
22964;BME280;11648;49.306;6.934;2022-12-07T14:21:05;98370.59;;;9.78;58.99
22964;BME280;11648;49.306;6.934;2022-12-07T14:23:32;98366.16;;;9.84;59.20
22964;BME280;11648;49.306;6.934;2022-12-07T14:28:35;98366.94;;;9.96;59.11
22964;BME280;11648;49.306;6.934;2022-12-07T14:31:03;98367.00;;;9.89;59.24
22964;BME280;11648;49.306;6.934;2022-12-07T14:33:34;98357.31;;;9.91;59.05
22964;BME280;11648;49.306;6.934;2022-12-07T14:36:01;98352.34;;;9.64;59.17
22964;BME280;11648;49.306;6.934;2022-12-07T14:38:28;98351.50;;;9.61;59.91
22964;BME280;11648;49.306;6.934;2022-12-07T14:40:55;98354.25;;;9.47;60.16
22964;BME280;11648;49.306;6.934;2022-12-07T14:43:42;98346.38;;;9.46;60.12
22964;BME280;11648;49.306;6.934;2022-12-07T14:46:29;98348.97;;;9.50;60.55
22964;BME280;11648;49.306;6.934;2022-12-07T14:48:56;98349.81;;;9.54;60.54
22964;BME280;11648;49.306;6.934;2022-12-07T14:51:44;98351.53;;;9.56;60.13
22964;BME280;11648;49.306;6.934;2022-12-07T14:54:32;98346.31;;;9.53;60.70
22964;BME280;11648;49.306;6.934;2022-12-07T14:56:59;98347.16;;;9.58;60.28
22964;BME280;11648;49.306;6.934;2022-12-07T14:59:26;98348.91;;;9.56;60.79
22964;BME280;11648;49.306;6.934;2022-12-07T15:01:52;98351.63;;;9.47;60.47
22964;BME280;11648;49.306;6.934;2022-12-07T15:04:19;98347.31;;;9.40;60.36
22964;BME280;11648;49.306;6.934;2022-12-07T15:07:00;98352.50;;;9.46;60.82
22964;BME280;11648;49.306;6.934;2022-12-07T15:09:27;98358.72;;;9.36;60.94
22964;BME280;11648;49.306;6.934;2022-12-07T15:11:54;98342.97;;;9.37;60.40
22964;BME280;11648;49.306;6.934;2022-12-07T15:14:21;98352.59;;;9.37;60.98
22964;BME280;11648;49.306;6.934;2022-12-07T15:16:47;98347.34;;;9.35;60.69
22964;BME280;11648;49.306;6.934;2022-12-07T15:19:34;98352.59;;;9.37;61.03
22964;BME280;11648;49.306;6.934;2022-12-07T15:22:01;98347.31;;;9.40;60.73
22964;BME280;11648;49.306;6.934;2022-12-07T15:24:29;98352.53;;;9.43;60.80
22964;BME280;11648;49.306;6.934;2022-12-07T15:26:55;98355.28;;;9.28;61.15
22964;BME280;11648;49.306;6.934;2022-12-07T15:29:22;98355.19;;;9.38;61.66
22964;BME280;11648;49.306;6.934;2022-12-07T15:31:51;98354.31;;;9.39;61.15
22964;BME280;11648;49.306;6.934;2022-12-07T15:34:24;98352.59;;;9.34;61.02
22964;BME280;11648;49.306;6.934;2022-12-07T15:36:51;98347.34;;;9.37;60.74
22964;BME280;11648;49.306;6.934;2022-12-07T15:39:18;98349.09;;;9.35;61.42
22964;BME280;11648;49.306;6.934;2022-12-07T15:41:45;98346.44;;;9.39;61.13
22964;BME280;11648;49.306;6.934;2022-12-07T15:44:12;98342.97;;;9.33;61.02
22964;BME280;11648;49.306;6.934;2022-12-07T15:46:59;98343.84;;;9.35;60.70
22964;BME280;11648;49.306;6.934;2022-12-07T15:49:27;98339.56;;;9.20;61.34
22964;BME280;11648;49.306;6.934;2022-12-07T15:51:53;98331.72;;;9.17;60.56
22964;BME280;11648;49.306;6.934;2022-12-07T15:54:21;98336.13;;;9.15;60.32
22964;BME280;11648;49.306;6.934;2022-12-07T15:56:48;98324.72;;;9.18;60.49
22964;BME280;11648;49.306;6.934;2022-12-07T15:59:16;98322.16;;;9.06;60.71